Time;durP1;ratioP1;P1;durP2;ratioP2;P2;SDS_P1;SDS_P2;PMS_P1;PMS_P2;Temp;Humidity;BMP_temperature;BMP_pressure;BME280_temperature;BME280_humidity;BME280_pressure;Samples;Min_cycle;Max_cycle;Signal;HPM_P1;HPM_P2
2022/12/06 00:00:44;;;;;;;8.23;5.90;;;3.60;99.90;;;;;;5056324;28;20167;-77
2022/12/06 00:03:10;;;;;;;10.97;5.63;;;3.50;99.90;;;;;;5054984;28;20191;-77
2022/12/06 00:05:35;;;;;;;11.67;6.93;;;3.50;99.90;;;;;;5055996;28;20174;-77
2022/12/06 00:08:01;;;;;;;9.63;6.20;;;3.60;99.90;;;;;;5054636;28;20170;-77
2022/12/06 00:10:27;;;;;;;12.80;6.97;;;3.60;99.90;;;;;;5054834;28;20559;-77
2022/12/06 00:12:52;;;;;;;9.97;5.30;;;3.50;99.90;;;;;;5055376;28;20193;-77
2022/12/06 00:15:18;;;;;;;8.27;4.50;;;3.50;99.90;;;;;;5055364;28;20206;-78
2022/12/06 00:17:43;;;;;;;8.53;5.70;;;3.50;99.90;;;;;;5055435;28;20179;-77
2022/12/06 00:20:09;;;;;;;8.80;6.17;;;3.50;99.90;;;;;;5055283;28;20167;-77
2022/12/06 00:22:35;;;;;;;8.00;5.70;;;3.50;99.90;;;;;;5055297;28;20187;-77
2022/12/06 00:25:00;;;;;;;7.27;5.60;;;3.50;99.90;;;;;;5054910;28;20757;-77
2022/12/06 00:27:26;;;;;;;9.83;5.97;;;3.50;99.90;;;;;;5055953;28;20175;-77
2022/12/06 00:29:51;;;;;;;9.00;5.00;;;3.50;99.90;;;;;;5055286;28;20185;-77
2022/12/06 00:32:17;;;;;;;6.30;4.60;;;3.50;99.90;;;;;;5054764;28;20561;-77
2022/12/06 00:34:42;;;;;;;19.40;5.87;;;3.50;99.90;;;;;;5055823;28;20182;-77
2022/12/06 00:37:08;;;;;;;6.73;5.03;;;3.50;99.90;;;;;;5055397;28;20178;-78
2022/12/06 00:39:33;;;;;;;6.40;4.67;;;3.50;99.90;;;;;;5055323;28;20209;-77
2022/12/06 00:41:59;;;;;;;8.30;4.97;;;3.60;99.90;;;;;;5054702;28;20650;-77
2022/12/06 00:44:24;;;;;;;7.50;5.37;;;3.60;99.90;;;;;;5054349;28;20198;-77
2022/12/06 00:46:50;;;;;;;7.50;4.60;;;3.60;99.90;;;;;;5055735;28;20229;-77
2022/12/06 00:49:15;;;;;;;5.87;5.00;;;3.60;99.90;;;;;;5055754;28;20174;-78
2022/12/06 00:51:41;;;;;;;10.30;5.73;;;3.60;99.90;;;;;;5055769;28;20246;-78
2022/12/06 00:54:07;;;;;;;8.73;6.53;;;3.60;99.90;;;;;;5054451;28;20229;-77
2022/12/06 00:56:35;;;;;;;7.83;6.10;;;3.60;99.90;;;;;;5054272;28;20186;-77
2022/12/06 00:59:00;;;;;;;6.97;5.40;;;3.70;99.90;;;;;;5055530;28;21595;-77
2022/12/06 01:01:29;;;;;;;8.30;4.37;;;3.70;99.90;;;;;;5055298;28;20481;-77
2022/12/06 01:03:57;;;;;;;8.47;5.73;;;3.70;99.90;;;;;;5053674;28;20586;-78
2022/12/06 01:06:26;;;;;;;8.50;6.13;;;3.70;99.90;;;;;;5054984;28;20440;-78
2022/12/06 01:08:56;;;;;;;8.13;6.13;;;3.70;99.90;;;;;;5055144;28;20406;-78
2022/12/06 01:11:23;;;;;;;10.80;6.87;;;3.70;99.90;;;;;;5054929;28;20406;-78
2022/12/06 01:13:49;;;;;;;13.43;7.60;;;3.60;99.90;;;;;;5053126;28;20444;-78
2022/12/06 01:16:18;;;;;;;8.37;6.20;;;3.70;99.90;;;;;;5054540;28;20487;-78
2022/12/06 01:18:45;;;;;;;10.13;5.67;;;3.70;99.90;;;;;;5054688;28;20398;-78
2022/12/06 01:21:14;;;;;;;10.07;7.17;;;3.70;99.90;;;;;;5054452;28;20402;-78
2022/12/06 01:23:40;;;;;;;10.50;6.93;;;3.70;99.90;;;;;;5054012;28;20430;-77
2022/12/06 01:26:06;;;;;;;13.73;6.43;;;3.70;99.90;;;;;;5054265;28;20398;-78
2022/12/06 01:28:32;;;;;;;11.03;6.87;;;3.70;99.90;;;;;;5054744;28;20469;-78
2022/12/06 01:30:58;;;;;;;9.20;6.17;;;3.80;99.90;;;;;;5053106;28;20461;-78
2022/12/06 01:33:24;;;;;;;10.27;6.67;;;3.70;99.90;;;;;;5053267;28;20430;-78
2022/12/06 01:35:49;;;;;;;15.03;7.60;;;3.80;99.90;;;;;;5053981;28;20647;-77
2022/12/06 01:38:15;;;;;;;12.40;6.73;;;3.80;99.90;;;;;;5054522;28;20441;-77
2022/12/06 01:40:43;;;;;;;10.73;6.70;;;3.80;99.90;;;;;;5053205;28;20534;-77
2022/12/06 01:43:28;;;;;;;14.60;7.60;;;3.90;99.90;;;;;;5054391;28;20247;-77
2022/12/06 01:45:54;;;;;;;10.03;6.50;;;3.80;99.90;;;;;;5053653;28;20772;-77
2022/12/06 01:48:23;;;;;;;12.70;6.40;;;3.80;99.90;;;;;;5053800;28;20420;-77
2022/12/06 01:50:48;;;;;;;9.33;6.30;;;3.80;99.90;;;;;;5054130;28;20278;-77
2022/12/06 01:53:14;;;;;;;10.80;6.37;;;3.80;99.90;;;;;;5052415;28;20441;-77
2022/12/06 01:55:40;;;;;;;15.60;6.90;;;3.80;99.90;;;;;;5052694;28;20209;-77
2022/12/06 01:58:11;;;;;;;10.20;5.93;;;3.80;99.90;;;;;;5053128;28;20416;-77
2022/12/06 02:00:37;;;;;;;10.23;6.17;;;3.80;99.90;;;;;;5052478;28;20174;-77
2022/12/06 02:03:06;;;;;;;9.63;6.47;;;3.80;99.90;;;;;;5051449;28;20425;-78
2022/12/06 02:05:33;;;;;;;12.47;7.50;;;3.90;99.90;;;;;;5053440;28;20305;-77
2022/12/06 02:07:59;;;;;;;10.87;6.47;;;3.90;99.90;;;;;;5054091;28;20793;-77
2022/12/06 02:10:26;;;;;;;9.80;6.03;;;3.90;99.90;;;;;;5054038;28;20421;-78
2022/12/06 02:12:55;;;;;;;10.87;5.83;;;3.90;99.90;;;;;;5053966;28;20934;-77
2022/12/06 02:15:29;;;;;;;11.97;7.10;;;3.90;99.90;;;;;;5054216;28;20540;-77
2022/12/06 02:18:08;;;;;;;14.23;7.00;;;3.90;99.90;;;;;;5052192;28;21062;-78
2022/12/06 02:20:43;;;;;;;9.57;6.00;;;4.00;99.90;;;;;;5053075;28;20410;-77
2022/12/06 02:23:34;;;;;;;11.87;7.03;;;4.00;99.90;;;;;;5052905;28;20426;-77
2022/12/06 02:26:13;;;;;;;14.33;6.60;;;4.10;99.90;;;;;;5052946;28;20907;-77
2022/12/06 02:29:13;;;;;;;11.73;6.43;;;4.10;99.90;;;;;;5056132;28;20442;-77
2022/12/06 02:31:43;;;;;;;8.07;6.30;;;4.10;99.90;;;;;;5057726;28;20779;-77
2022/12/06 02:34:11;;;;;;;10.80;7.00;;;4.10;99.90;;;;;;5055905;28;20437;-77
2022/12/06 02:36:44;;;;;;;13.87;7.13;;;4.10;99.90;;;;;;5057146;28;20535;-77
2022/12/06 02:39:33;;;;;;;11.03;7.07;;;4.10;99.90;;;;;;5056122;28;20840;-77
2022/12/06 02:42:02;;;;;;;13.50;8.40;;;4.00;99.90;;;;;;5057242;28;20421;-77
2022/12/06 02:44:43;;;;;;;10.97;7.47;;;4.10;99.90;;;;;;5056701;28;20421;-77
2022/12/06 02:47:11;;;;;;;12.47;7.87;;;4.00;99.90;;;;;;5057268;28;20401;-77
2022/12/06 02:49:43;;;;;;;10.10;6.23;;;4.10;99.90;;;;;;5057450;28;20409;-77
2022/12/06 02:52:10;;;;;;;8.00;5.67;;;4.10;99.90;;;;;;5057232;28;20412;-77
2022/12/06 02:54:35;;;;;;;10.60;6.30;;;4.10;99.90;;;;;;5055943;28;20925;-77
2022/12/06 02:57:01;;;;;;;14.80;6.90;;;4.10;99.90;;;;;;5057410;28;20402;-77
2022/12/06 02:59:26;;;;;;;9.80;6.73;;;4.10;99.90;;;;;;5057411;28;20178;-77
2022/12/06 03:01:56;;;;;;;11.73;6.00;;;4.20;99.90;;;;;;5057358;28;20178;-77
2022/12/06 03:05:11;;;;;;;11.70;8.03;;;4.20;99.90;;;;;;5056926;28;20260;-77
2022/12/06 03:07:42;;;;;;;12.93;8.20;;;4.10;99.90;;;;;;5054618;28;20406;-77
2022/12/06 03:10:32;;;;;;;12.67;7.10;;;4.10;99.90;;;;;;5055560;28;20433;-77
2022/12/06 03:13:05;;;;;;;12.83;6.50;;;4.20;99.90;;;;;;5056681;28;20464;-77
2022/12/06 03:15:39;;;;;;;12.83;7.67;;;4.10;99.90;;;;;;5054920;28;20440;-77
2022/12/06 03:18:31;;;;;;;19.00;8.20;;;4.10;99.90;;;;;;5055278;28;20415;-77
2022/12/06 03:21:09;;;;;;;8.93;6.33;;;4.00;99.90;;;;;;5048032;28;20459;-77
2022/12/06 03:23:38;;;;;;;13.93;8.80;;;4.10;99.90;;;;;;5056463;28;20420;-78
2022/12/06 03:26:05;;;;;;;14.13;7.50;;;4.10;99.90;;;;;;5054867;28;20409;-77
2022/12/06 03:28:35;;;;;;;14.10;7.53;;;4.10;99.90;;;;;;5056288;28;20850;-77
2022/12/06 03:31:03;;;;;;;19.20;8.23;;;4.10;99.90;;;;;;5054960;28;20433;-77
2022/12/06 03:33:32;;;;;;;12.10;7.40;;;4.20;99.90;;;;;;5056146;28;20438;-77
2022/12/06 03:35:58;;;;;;;15.43;8.73;;;4.20;99.90;;;;;;5055805;28;20498;-77
2022/12/06 03:38:33;;;;;;;13.03;8.00;;;4.20;99.90;;;;;;5055397;28;20402;-77
2022/12/06 03:41:02;;;;;;;14.23;8.30;;;4.20;99.90;;;;;;5055775;28;20437;-77
2022/12/06 03:43:28;;;;;;;20.23;8.70;;;4.30;99.90;;;;;;5054981;28;20433;-77
2022/12/06 03:46:12;;;;;;;15.53;7.67;;;4.30;99.90;;;;;;5054976;28;20428;-77
2022/12/06 03:48:47;;;;;;;16.63;7.93;;;4.30;99.90;;;;;;5054782;28;20799;-77
2022/12/06 03:51:25;;;;;;;9.87;7.87;;;4.30;99.90;;;;;;5056408;28;20462;-77
2022/12/06 03:53:57;;;;;;;17.37;10.10;;;4.40;99.90;;;;;;5056386;28;20847;-77
2022/12/06 03:56:23;;;;;;;20.50;11.70;;;4.40;99.90;;;;;;5055799;28;20461;-78
2022/12/06 03:58:49;;;;;;;16.50;8.90;;;4.50;99.90;;;;;;5056381;28;20413;-77
2022/12/06 04:01:15;;;;;;;11.20;7.50;;;4.50;99.90;;;;;;5055064;28;20421;-77
2022/12/06 04:03:40;;;;;;;14.00;7.53;;;4.50;99.90;;;;;;5055033;28;20508;-77
2022/12/06 04:06:07;;;;;;;15.90;7.90;;;4.50;99.90;;;;;;5055351;28;20175;-77
2022/12/06 04:08:33;;;;;;;15.00;8.30;;;4.60;99.90;;;;;;5056095;28;20219;-77
2022/12/06 04:10:59;;;;;;;16.17;8.90;;;4.60;99.90;;;;;;5055846;28;20409;-77
2022/12/06 04:13:25;;;;;;;11.93;7.37;;;4.60;99.90;;;;;;5054722;28;20452;-77
2022/12/06 04:15:54;;;;;;;16.43;7.10;;;4.60;99.90;;;;;;5054605;28;20230;-78
2022/12/06 04:18:20;;;;;;;15.73;8.23;;;4.60;99.90;;;;;;5055113;28;20655;-78
2022/12/06 04:23:45;;;;;;;8.37;5.63;;;4.50;99.90;;;;;;5055703;28;20699;-77
2022/12/06 04:26:13;;;;;;;11.63;7.07;;;4.50;99.90;;;;;;5055531;28;20420;-77
2022/12/06 04:39:35;;;;;;;20.07;6.70;;;4.40;99.90;;;;;;5055227;28;20428;-77
2022/12/06 04:44:46;;;;;;;14.57;8.20;;;4.50;99.90;;;;;;5055442;28;20254;-78
2022/12/06 04:47:11;;;;;;;20.43;7.53;;;4.50;99.90;;;;;;5054022;28;20409;-77
2022/12/06 04:49:38;;;;;;;12.17;7.00;;;4.50;99.90;;;;;;5054693;28;20178;-78
2022/12/06 04:52:05;;;;;;;11.10;6.70;;;4.50;99.90;;;;;;5054000;28;20210;-78
2022/12/06 04:54:31;;;;;;;14.77;8.17;;;4.50;99.90;;;;;;5054816;28;20429;-77
2022/12/06 04:56:58;;;;;;;9.93;5.87;;;4.50;99.90;;;;;;5053762;28;20463;-77
2022/12/06 04:59:25;;;;;;;12.20;7.50;;;4.50;99.90;;;;;;5053817;28;20182;-77
2022/12/06 05:01:51;;;;;;;9.60;6.33;;;4.50;99.90;;;;;;5053611;28;20788;-77
2022/12/06 05:04:17;;;;;;;9.87;6.43;;;4.60;99.90;;;;;;5054333;28;20433;-77
2022/12/06 05:06:43;;;;;;;12.40;7.33;;;4.60;99.90;;;;;;5054513;28;20402;-77
2022/12/06 05:09:08;;;;;;;11.30;6.40;;;4.60;99.90;;;;;;5054317;28;20428;-77
2022/12/06 05:11:34;;;;;;;16.10;6.60;;;4.60;99.90;;;;;;5053418;28;20273;-77
2022/12/06 05:14:00;;;;;;;10.80;6.40;;;4.60;99.90;;;;;;5052844;28;20202;-77
2022/12/06 05:16:26;;;;;;;9.97;6.10;;;4.60;99.90;;;;;;5053810;28;20224;-77
2022/12/06 05:18:51;;;;;;;15.13;7.43;;;4.60;99.90;;;;;;5054357;28;20234;-77
2022/12/06 05:21:20;;;;;;;14.03;7.13;;;4.60;99.90;;;;;;5052619;28;20462;-77
2022/12/06 05:23:45;;;;;;;19.57;9.27;;;4.60;99.90;;;;;;5053125;28;20258;-77
2022/12/06 05:26:16;;;;;;;10.77;6.37;;;4.60;99.90;;;;;;5054002;28;20499;-77
2022/12/06 05:28:44;;;;;;;9.17;6.70;;;4.60;99.90;;;;;;5054516;28;20170;-77
2022/12/06 05:31:10;;;;;;;11.27;6.13;;;4.60;99.90;;;;;;5053270;28;20441;-77
2022/12/06 05:33:37;;;;;;;12.27;7.63;;;4.70;99.90;;;;;;5054640;28;20448;-77
2022/12/06 05:36:11;;;;;;;15.60;8.50;;;4.70;99.90;;;;;;5053828;28;20456;-77
2022/12/06 05:38:38;;;;;;;11.00;6.30;;;4.70;99.90;;;;;;5053488;28;20440;-76
2022/12/06 05:41:04;;;;;;;15.03;7.90;;;4.70;99.90;;;;;;5052484;28;20492;-77
2022/12/06 05:43:30;;;;;;;14.90;8.20;;;4.70;99.90;;;;;;5053217;28;20190;-77
2022/12/06 05:45:57;;;;;;;15.70;8.67;;;4.80;99.90;;;;;;5054402;28;20202;-77
2022/12/06 05:48:22;;;;;;;10.70;6.80;;;4.70;99.90;;;;;;5053525;28;20401;-78
2022/12/06 05:50:49;;;;;;;13.03;6.87;;;4.70;99.90;;;;;;5055589;28;20451;-77
2022/12/06 05:53:15;;;;;;;11.90;6.00;;;4.70;99.90;;;;;;5054310;28;20195;-78
2022/12/06 05:55:42;;;;;;;18.57;8.60;;;4.80;99.90;;;;;;5053924;28;20485;-78
2022/12/06 05:58:08;;;;;;;13.60;7.80;;;4.90;99.90;;;;;;5054505;28;20402;-78
2022/12/06 06:00:34;;;;;;;18.00;9.13;;;4.90;99.90;;;;;;5054559;28;20417;-78
2022/12/06 06:02:59;;;;;;;15.37;8.07;;;4.90;99.90;;;;;;5051784;28;20516;-77
2022/12/06 06:05:25;;;;;;;13.37;8.50;;;4.90;99.90;;;;;;5054889;28;20480;-78
2022/12/06 06:07:50;;;;;;;15.77;7.63;;;4.90;99.90;;;;;;5054171;28;20181;-76
2022/12/06 06:10:16;;;;;;;13.80;7.87;;;4.90;99.90;;;;;;5052587;28;20175;-77
2022/12/06 06:12:46;;;;;;;11.23;7.00;;;5.00;99.90;;;;;;5051909;28;20195;-77
2022/12/06 06:15:12;;;;;;;16.90;7.80;;;5.00;99.90;;;;;;5051498;28;20738;-76
2022/12/06 06:17:38;;;;;;;13.50;8.00;;;5.00;99.90;;;;;;5051090;28;20413;-77
2022/12/06 06:20:06;;;;;;;20.70;7.90;;;5.00;99.90;;;;;;5052818;28;20444;-77
2022/12/06 06:22:34;;;;;;;12.43;8.07;;;5.00;99.90;;;;;;5052879;28;20440;-76
2022/12/06 06:25:00;;;;;;;16.80;9.20;;;5.00;99.90;;;;;;5051557;28;20401;-76
2022/12/06 06:27:25;;;;;;;12.13;7.93;;;5.00;99.90;;;;;;5051706;28;20405;-77
2022/12/06 06:29:51;;;;;;;16.77;7.77;;;5.00;99.90;;;;;;5054424;28;20402;-77
2022/12/06 06:32:16;;;;;;;13.53;7.20;;;5.00;99.90;;;;;;5053171;28;20187;-76
2022/12/06 06:34:42;;;;;;;13.43;6.77;;;5.00;99.90;;;;;;5051961;28;20175;-77
2022/12/06 06:37:07;;;;;;;13.43;8.90;;;5.00;99.90;;;;;;5052298;28;20624;-76
2022/12/06 06:39:33;;;;;;;15.40;8.37;;;5.00;99.90;;;;;;5052005;28;20167;-76
2022/12/06 06:41:58;;;;;;;18.23;8.10;;;5.00;99.90;;;;;;5051796;28;20266;-77
2022/12/06 06:44:24;;;;;;;10.03;6.87;;;5.00;99.90;;;;;;5052877;28;20197;-77
2022/12/06 06:46:49;;;;;;;13.33;7.73;;;5.00;99.90;;;;;;5052144;28;20179;-77
2022/12/06 06:49:16;;;;;;;14.80;7.50;;;5.10;99.90;;;;;;5053245;28;20175;-77
2022/12/06 06:51:42;;;;;;;16.93;8.97;;;5.00;99.90;;;;;;5053201;28;20698;-77
2022/12/06 06:54:07;;;;;;;20.60;9.67;;;5.00;99.90;;;;;;5053011;28;20429;-77
2022/12/06 06:56:33;;;;;;;13.50;7.03;;;5.00;99.90;;;;;;5052461;28;20714;-77
2022/12/06 06:58:58;;;;;;;14.60;8.53;;;5.00;99.90;;;;;;5051884;28;20171;-76
2022/12/06 07:01:24;;;;;;;12.53;7.20;;;5.00;99.90;;;;;;5052918;28;20178;-77
2022/12/06 07:03:53;;;;;;;17.40;10.47;;;5.00;99.90;;;;;;5053078;28;20183;-77
2022/12/06 07:06:19;;;;;;;19.07;9.77;;;5.00;99.90;;;;;;5052123;28;20556;-76
2022/12/06 07:08:48;;;;;;;12.73;8.70;;;5.00;99.90;;;;;;5051346;28;20447;-76
2022/12/06 07:11:14;;;;;;;16.50;8.60;;;5.00;99.90;;;;;;5050102;28;20483;-76
2022/12/06 07:13:41;;;;;;;17.67;8.40;;;5.00;99.90;;;;;;5052811;28;20441;-77
2022/12/06 07:16:12;;;;;;;16.87;10.00;;;5.00;99.90;;;;;;5057029;28;20548;-77
2022/12/06 07:18:38;;;;;;;15.70;8.50;;;5.00;99.90;;;;;;5057113;28;20425;-77
2022/12/06 07:21:06;;;;;;;17.83;9.07;;;5.10;99.90;;;;;;5056555;28;20484;-77
2022/12/06 07:23:33;;;;;;;15.07;8.40;;;5.10;99.90;;;;;;5055011;28;20224;-77
2022/12/06 07:26:05;;;;;;;16.97;8.83;;;5.10;99.90;;;;;;5053677;28;20466;-76
2022/12/06 07:28:32;;;;;;;14.87;8.50;;;5.10;99.90;;;;;;5054962;28;20437;-76
2022/12/06 07:30:57;;;;;;;14.03;8.33;;;5.20;99.90;;;;;;5055070;28;20440;-77
2022/12/06 07:33:23;;;;;;;15.27;8.67;;;5.20;99.90;;;;;;5055940;28;20426;-77
2022/12/06 07:35:52;;;;;;;17.60;9.10;;;5.20;99.90;;;;;;5056474;28;20198;-77
2022/12/06 07:38:18;;;;;;;20.67;8.90;;;5.20;99.90;;;;;;5056729;28;20167;-77
2022/12/06 07:40:44;;;;;;;14.70;8.23;;;5.30;99.90;;;;;;5054799;28;20484;-76
2022/12/06 07:45:54;;;;;;;17.50;9.67;;;5.30;99.90;;;;;;5054549;28;20209;-76
2022/12/06 07:48:19;;;;;;;14.73;8.63;;;5.30;99.90;;;;;;5054545;28;20822;-76
2022/12/06 07:50:46;;;;;;;9.73;7.70;;;5.30;99.90;;;;;;5054516;28;20433;-78
2022/12/06 07:53:11;;;;;;;16.27;8.93;;;5.30;99.90;;;;;;5054237;28;20182;-77
2022/12/06 07:55:37;;;;;;;17.10;8.20;;;5.30;99.90;;;;;;5054049;28;20453;-76
2022/12/06 07:58:03;;;;;;;16.90;8.93;;;5.40;99.90;;;;;;5054401;28;20261;-77
2022/12/06 08:00:28;;;;;;;19.20;8.03;;;5.40;99.90;;;;;;5055919;28;20204;-77
2022/12/06 08:02:54;;;;;;;16.47;8.50;;;5.50;99.90;;;;;;5056733;28;20226;-77
2022/12/06 08:05:19;;;;;;;16.90;8.50;;;5.50;99.90;;;;;;5057270;28;20174;-76
2022/12/06 08:07:45;;;;;;;14.50;8.00;;;5.50;99.90;;;;;;5058644;28;20182;-78
2022/12/06 08:10:10;;;;;;;15.63;8.47;;;5.60;99.90;;;;;;5057861;28;20534;-78
2022/12/06 08:12:36;;;;;;;15.80;8.43;;;5.60;99.90;;;;;;5055578;28;20682;-77
2022/12/06 08:15:02;;;;;;;14.20;8.13;;;5.60;99.90;;;;;;5055841;28;20276;-77
2022/12/06 08:17:29;;;;;;;18.57;8.50;;;5.60;99.90;;;;;;5054227;28;20197;-77
2022/12/06 08:19:54;;;;;;;10.90;6.67;;;5.70;99.90;;;;;;5054272;28;20202;-77
2022/12/06 08:22:20;;;;;;;15.07;8.03;;;5.70;99.90;;;;;;5054866;28;20925;-77
2022/12/06 08:24:45;;;;;;;13.97;7.47;;;5.70;99.90;;;;;;5053991;28;20232;-77
2022/12/06 08:27:11;;;;;;;11.20;7.40;;;5.80;99.90;;;;;;5055915;28;20163;-77
2022/12/06 08:29:36;;;;;;;12.40;7.20;;;5.80;99.90;;;;;;5054566;28;20299;-77
2022/12/06 08:32:02;;;;;;;10.03;7.60;;;5.80;99.90;;;;;;5056795;28;20554;-76
2022/12/06 08:34:28;;;;;;;15.13;7.33;;;5.80;99.90;;;;;;5055985;28;20198;-78
2022/12/06 08:36:53;;;;;;;16.60;6.03;;;5.90;99.90;;;;;;5056124;28;20624;-78
2022/12/06 08:39:19;;;;;;;12.63;7.40;;;6.00;99.90;;;;;;5056430;28;20167;-78
2022/12/06 08:42:02;;;;;;;12.00;6.40;;;6.00;99.90;;;;;;5057491;28;20532;-77
2022/12/06 08:44:29;;;;;;;12.67;6.50;;;6.00;99.90;;;;;;5055005;28;20224;-76
2022/12/06 08:46:56;;;;;;;13.70;8.10;;;6.00;99.90;;;;;;5053026;28;20484;-76
2022/12/06 08:49:22;;;;;;;11.80;6.00;;;6.00;99.90;;;;;;5055296;28;20405;-77
2022/12/06 08:51:48;;;;;;;15.37;7.47;;;6.00;99.90;;;;;;5055134;28;20408;-77
2022/12/06 08:54:16;;;;;;;9.40;5.90;;;6.00;99.90;;;;;;5053865;28;20962;-77
2022/12/06 08:56:42;;;;;;;12.97;6.90;;;6.00;99.90;;;;;;5053947;28;20202;-77
2022/12/06 08:59:08;;;;;;;12.73;8.23;;;6.10;99.90;;;;;;5055199;28;20412;-78
2022/12/06 09:01:33;;;;;;;11.97;7.37;;;6.20;99.90;;;;;;5054146;28;20174;-77
2022/12/06 09:04:03;;;;;;;10.33;6.37;;;6.20;99.90;;;;;;5056213;28;20257;-78
2022/12/06 09:06:29;;;;;;;13.30;7.37;;;6.20;99.90;;;;;;5056123;28;20187;-78
2022/12/06 09:08:55;;;;;;;13.63;8.07;;;6.30;99.90;;;;;;5056609;28;20923;-78
2022/12/06 09:11:21;;;;;;;21.43;8.87;;;6.30;99.90;;;;;;5055140;28;20651;-78
2022/12/06 09:13:46;;;;;;;13.33;7.90;;;6.30;99.90;;;;;;5053719;28;20445;-78
2022/12/06 09:16:19;;;;;;;11.77;6.70;;;6.40;99.90;;;;;;5054531;28;20240;-77
2022/12/06 09:18:45;;;;;;;11.00;7.17;;;6.40;99.90;;;;;;5054732;28;20806;-77
2022/12/06 09:21:13;;;;;;;13.70;7.53;;;6.40;99.90;;;;;;5053797;28;20459;-78
2022/12/06 09:23:39;;;;;;;12.50;7.20;;;6.40;99.90;;;;;;5054072;28;20872;-77
2022/12/06 09:26:05;;;;;;;14.53;8.63;;;6.40;99.90;;;;;;5054688;28;20487;-77
2022/12/06 09:28:33;;;;;;;13.73;8.07;;;6.40;99.90;;;;;;5053677;28;20175;-77
2022/12/06 09:31:00;;;;;;;13.30;8.00;;;6.50;99.90;;;;;;5056399;28;20520;-77
2022/12/06 09:33:25;;;;;;;12.60;8.00;;;6.50;99.90;;;;;;5055462;28;20958;-78
2022/12/06 09:35:52;;;;;;;20.10;11.10;;;6.60;99.90;;;;;;5054522;28;20452;-78
2022/12/06 09:38:22;;;;;;;13.43;7.00;;;6.70;99.90;;;;;;5055337;28;20213;-76
2022/12/06 09:41:12;;;;;;;16.13;8.43;;;6.70;99.90;;;;;;5051259;28;20463;-76
2022/12/06 09:43:41;;;;;;;12.10;7.17;;;6.80;99.90;;;;;;5052225;28;20425;-76
2022/12/06 09:46:30;;;;;;;14.33;7.43;;;6.90;99.90;;;;;;5052246;28;20425;-77
2022/12/06 09:48:56;;;;;;;11.73;5.73;;;6.90;99.90;;;;;;5054349;28;20397;-78
2022/12/06 09:51:59;;;;;;;15.13;6.73;;;7.00;99.90;;;;;;5054689;28;20421;-78
2022/12/06 09:54:33;;;;;;;11.07;6.43;;;7.00;99.90;;;;;;5052677;28;20536;-78
2022/12/06 09:57:12;;;;;;;14.53;7.10;;;7.00;99.90;;;;;;5053976;28;20452;-78
2022/12/06 10:00:14;;;;;;;10.57;6.37;;;7.00;99.90;;;;;;5053286;28;20398;-76
2022/12/06 10:03:08;;;;;;;8.60;5.60;;;7.00;99.90;;;;;;5050760;28;20429;-76
2022/12/06 10:06:01;;;;;;;11.33;6.20;;;7.00;99.90;;;;;;5050395;28;20478;-77
2022/12/06 10:08:58;;;;;;;10.33;5.43;;;7.00;99.90;;;;;;5052067;28;20402;-76
2022/12/06 10:11:42;;;;;;;7.17;5.87;;;7.00;99.90;;;;;;5052001;28;20821;-77
2022/12/06 10:14:26;;;;;;;11.03;5.97;;;6.90;99.90;;;;;;5051851;28;20474;-77
2022/12/06 10:17:10;;;;;;;11.80;7.30;;;6.90;99.90;;;;;;5051883;28;20460;-77
2022/12/06 10:19:52;;;;;;;14.00;6.47;;;6.90;99.90;;;;;;5051795;28;20401;-76
2022/12/06 10:22:21;;;;;;;9.30;5.70;;;6.80;99.90;;;;;;5053919;28;20401;-77
2022/12/06 10:25:01;;;;;;;8.30;5.40;;;6.80;99.90;;;;;;5055629;28;20421;-77
2022/12/06 10:28:03;;;;;;;10.80;5.20;;;6.80;99.90;;;;;;5055713;28;20405;-78
2022/12/06 10:30:29;;;;;;;8.70;5.70;;;6.90;99.90;;;;;;5054514;28;20432;-78
2022/12/06 10:33:08;;;;;;;13.10;5.80;;;6.90;99.90;;;;;;5053708;28;20504;-78
2022/12/06 10:35:51;;;;;;;10.17;5.87;;;6.80;99.90;;;;;;5055762;28;21019;-78
2022/12/06 10:38:38;;;;;;;12.43;6.17;;;6.80;99.90;;;;;;5055715;28;20409;-78
2022/12/06 10:41:42;;;;;;;15.87;6.80;;;6.80;99.90;;;;;;5056158;28;20424;-78
2022/12/06 10:44:20;;;;;;;10.07;6.80;;;6.80;99.90;;;;;;5055078;28;20429;-75
2022/12/06 10:47:05;;;;;;;11.57;6.90;;;6.80;99.90;;;;;;5056528;28;20482;-78
2022/12/06 10:49:47;;;;;;;10.20;6.60;;;6.80;99.90;;;;;;5058746;28;20455;-77
2022/12/06 10:52:42;;;;;;;12.73;6.43;;;6.70;99.90;;;;;;5061142;28;20405;-78
2022/12/06 10:55:14;;;;;;;9.70;5.83;;;6.70;99.90;;;;;;5056591;28;20468;-78
2022/12/06 10:57:42;;;;;;;9.07;6.40;;;6.70;99.90;;;;;;5056340;28;20484;-78
2022/12/06 11:00:18;;;;;;;9.70;5.57;;;6.70;99.90;;;;;;5055803;28;20473;-78
2022/12/06 11:03:25;;;;;;;10.47;5.60;;;6.70;99.90;;;;;;5056697;28;20922;-77
2022/12/06 11:06:10;;;;;;;12.10;6.13;;;6.80;99.90;;;;;;5056100;28;20409;-77
2022/12/06 11:08:44;;;;;;;7.67;4.90;;;6.90;99.90;;;;;;5056932;28;20424;-77
2022/12/06 11:11:14;;;;;;;9.57;6.77;;;6.90;99.90;;;;;;5056341;28;20922;-77
2022/12/06 11:13:48;;;;;;;9.43;5.10;;;6.90;99.90;;;;;;5056721;28;20425;-77
2022/12/06 11:16:22;;;;;;;8.87;5.30;;;6.90;99.90;;;;;;5054811;28;20461;-77
2022/12/06 11:18:48;;;;;;;14.10;8.73;;;7.10;99.90;;;;;;5056877;28;20408;-76
2022/12/06 11:21:25;;;;;;;10.23;6.47;;;7.20;99.90;;;;;;5056180;28;20398;-77
2022/12/06 11:24:22;;;;;;;9.17;5.90;;;7.30;99.90;;;;;;5056247;28;20466;-77
2022/12/06 11:27:04;;;;;;;7.97;4.80;;;7.40;99.90;;;;;;5055587;28;20829;-75
2022/12/06 11:29:30;;;;;;;9.40;5.10;;;7.40;99.90;;;;;;5054785;28;20816;-76
2022/12/06 11:32:01;;;;;;;8.80;4.13;;;7.50;99.90;;;;;;5054431;28;20420;-76
2022/12/06 11:34:50;;;;;;;8.17;4.03;;;7.60;99.90;;;;;;5054262;28;20441;-76
2022/12/06 11:37:19;;;;;;;4.53;3.57;;;7.50;99.90;;;;;;5053307;28;20436;-75
2022/12/06 11:39:47;;;;;;;5.63;4.20;;;7.50;99.90;;;;;;5054508;28;20764;-76
2022/12/06 11:42:15;;;;;;;6.90;4.57;;;7.60;99.90;;;;;;5054282;28;20493;-76
2022/12/06 11:44:44;;;;;;;6.10;3.93;;;7.70;99.90;;;;;;5053782;28;20408;-76
2022/12/06 11:47:14;;;;;;;5.13;2.93;;;7.70;99.90;;;;;;5054212;28;20459;-76
2022/12/06 11:49:42;;;;;;;6.90;4.20;;;7.70;99.90;;;;;;5052979;28;20413;-76
2022/12/06 11:52:13;;;;;;;6.00;3.63;;;7.70;99.90;;;;;;5054148;28;20521;-75
2022/12/06 11:54:53;;;;;;;5.93;4.20;;;7.80;99.90;;;;;;5053965;28;20418;-76
2022/12/06 11:57:24;;;;;;;6.80;4.57;;;7.90;99.90;;;;;;5054171;28;20397;-75
2022/12/06 12:00:10;;;;;;;5.20;3.73;;;8.10;99.90;;;;;;5053794;28;20758;-75
2022/12/06 12:02:36;;;;;;;4.40;3.50;;;8.10;99.90;;;;;;5045444;28;20425;-75
2022/12/06 12:05:29;;;;;;;4.70;3.33;;;8.10;99.90;;;;;;5053648;28;20412;-76
2022/12/06 12:08:13;;;;;;;5.07;3.40;;;8.20;99.90;;;;;;5053902;28;20398;-76
2022/12/06 12:10:44;;;;;;;6.33;3.80;;;8.20;99.90;;;;;;5053893;28;20827;-75
2022/12/06 12:15:56;;;;;;;5.83;4.50;;;8.20;99.90;;;;;;5053401;28;20953;-76
2022/12/06 12:18:27;;;;;;;5.47;4.10;;;8.20;99.90;;;;;;5053617;28;20401;-76
2022/12/06 12:20:54;;;;;;;7.63;4.00;;;8.20;99.90;;;;;;5053717;28;20411;-76
2022/12/06 12:23:29;;;;;;;4.00;3.13;;;8.20;99.90;;;;;;5053511;28;20421;-76
2022/12/06 12:26:12;;;;;;;10.53;3.33;;;8.20;99.90;;;;;;5053307;28;20408;-76
2022/12/06 12:28:39;;;;;;;4.23;3.20;;;8.10;99.90;;;;;;5053462;28;20408;-76
2022/12/06 12:31:18;;;;;;;5.33;3.50;;;8.20;99.90;;;;;;5053226;28;20456;-76
2022/12/06 12:33:45;;;;;;;4.77;2.60;;;8.30;99.90;;;;;;5053387;28;20798;-76
2022/12/06 12:36:22;;;;;;;5.07;3.07;;;8.30;99.90;;;;;;5053026;28;20481;-75
2022/12/06 12:38:55;;;;;;;12.37;3.33;;;8.40;99.90;;;;;;5053216;28;20402;-76
2022/12/06 12:41:38;;;;;;;5.23;3.10;;;8.20;99.90;;;;;;5053105;28;20469;-76
2022/12/06 12:44:28;;;;;;;5.73;2.97;;;8.10;99.90;;;;;;5053026;28;20439;-76
2022/12/06 12:47:14;;;;;;;5.80;3.77;;;8.10;99.90;;;;;;5053176;28;20412;-75
2022/12/06 12:49:40;;;;;;;4.23;3.27;;;8.20;99.90;;;;;;5051792;28;20413;-75
2022/12/06 12:52:27;;;;;;;7.77;3.80;;;8.20;99.90;;;;;;5051724;28;20463;-76
2022/12/06 12:55:12;;;;;;;6.23;4.03;;;8.10;99.90;;;;;;5051519;28;20229;-75
2022/12/06 12:57:38;;;;;;;4.00;3.27;;;8.20;99.90;;;;;;5053072;28;20466;-76
2022/12/06 13:00:05;;;;;;;7.63;4.30;;;8.30;99.90;;;;;;5052863;28;20414;-76
2022/12/06 13:02:33;;;;;;;3.40;3.10;;;8.20;99.90;;;;;;5052464;28;20421;-76
2022/12/06 13:05:04;;;;;;;6.63;4.27;;;8.20;99.90;;;;;;5051225;28;20417;-76
2022/12/06 13:07:33;;;;;;;8.00;3.97;;;8.20;99.90;;;;;;5053009;28;20459;-76
2022/12/06 13:10:04;;;;;;;4.87;3.73;;;8.30;99.90;;;;;;5051931;28;20408;-76
2022/12/06 13:12:52;;;;;;;8.00;3.93;;;8.30;99.90;;;;;;5052549;28;20504;-75
2022/12/06 13:15:33;;;;;;;4.37;2.87;;;8.30;99.90;;;;;;5050878;28;20455;-76
2022/12/06 13:18:07;;;;;;;4.50;3.30;;;8.30;99.90;;;;;;5052673;28;20402;-75
2022/12/06 13:20:34;;;;;;;5.90;4.80;;;8.40;99.90;;;;;;5052550;28;20455;-76
2022/12/06 13:23:04;;;;;;;4.10;3.70;;;8.50;99.90;;;;;;5052409;28;20421;-75
2022/12/06 13:25:30;;;;;;;5.80;3.33;;;8.50;99.90;;;;;;5052251;28;20456;-75
2022/12/06 13:27:58;;;;;;;4.70;3.63;;;8.40;99.90;;;;;;5052346;28;20919;-75
2022/12/06 13:30:27;;;;;;;4.43;3.80;;;8.20;99.90;;;;;;5050806;28;20194;-76